sensor_id;sensor_type;location;lat;lon;timestamp;P1;durP1;ratioP1;P2;durP2;ratioP2
64641;SDS011;59936;51.490;5.436;2023-11-22T00:01:33;17.00;;;8.60;;
64641;SDS011;59936;51.490;5.436;2023-11-22T00:06:10;18.10;;;8.50;;
64641;SDS011;59936;51.490;5.436;2023-11-22T00:08:39;19.50;;;8.80;;
64641;SDS011;59936;51.490;5.436;2023-11-22T00:11:08;12.90;;;8.60;;
64641;SDS011;59936;51.490;5.436;2023-11-22T00:13:37;18.50;;;9.40;;
64641;SDS011;59936;51.490;5.436;2023-11-22T00:16:05;16.20;;;9.90;;
64641;SDS011;59936;51.490;5.436;2023-11-22T00:18:34;16.60;;;8.90;;
64641;SDS011;59936;51.490;5.436;2023-11-22T00:21:03;15.90;;;8.50;;
64641;SDS011;59936;51.490;5.436;2023-11-22T00:23:32;14.20;;;8.60;;
64641;SDS011;59936;51.490;5.436;2023-11-22T00:26:00;17.60;;;9.70;;
64641;SDS011;59936;51.490;5.436;2023-11-22T00:28:29;19.30;;;9.50;;
64641;SDS011;59936;51.490;5.436;2023-11-22T00:30:58;15.80;;;8.40;;
64641;SDS011;59936;51.490;5.436;2023-11-22T00:33:26;14.90;;;8.90;;
64641;SDS011;59936;51.490;5.436;2023-11-22T00:35:55;14.20;;;9.40;;
64641;SDS011;59936;51.490;5.436;2023-11-22T00:38:23;17.90;;;10.60;;
64641;SDS011;59936;51.490;5.436;2023-11-22T00:40:52;24.80;;;9.90;;
64641;SDS011;59936;51.490;5.436;2023-11-22T00:43:21;17.70;;;8.20;;
64641;SDS011;59936;51.490;5.436;2023-11-22T00:45:49;18.60;;;10.20;;
64641;SDS011;59936;51.490;5.436;2023-11-22T00:48:18;14.50;;;8.90;;
64641;SDS011;59936;51.490;5.436;2023-11-22T00:50:46;18.10;;;9.20;;
64641;SDS011;59936;51.490;5.436;2023-11-22T00:53:15;17.10;;;9.50;;
64641;SDS011;59936;51.490;5.436;2023-11-22T00:55:43;17.10;;;9.40;;
64641;SDS011;59936;51.490;5.436;2023-11-22T00:58:12;14.00;;;9.00;;
64641;SDS011;59936;51.490;5.436;2023-11-22T01:00:41;14.00;;;9.00;;
64641;SDS011;59936;51.490;5.436;2023-11-22T01:03:09;20.00;;;8.50;;
64641;SDS011;59936;51.490;5.436;2023-11-22T01:05:38;13.40;;;8.40;;
64641;SDS011;59936;51.490;5.436;2023-11-22T01:08:06;18.60;;;7.80;;
64641;SDS011;59936;51.490;5.436;2023-11-22T01:10:35;10.10;;;7.50;;
64641;SDS011;59936;51.490;5.436;2023-11-22T01:13:03;14.80;;;8.20;;
64641;SDS011;59936;51.490;5.436;2023-11-22T01:15:32;18.50;;;8.70;;
64641;SDS011;59936;51.490;5.436;2023-11-22T01:18:01;19.20;;;8.90;;
64641;SDS011;59936;51.490;5.436;2023-11-22T01:20:29;16.50;;;9.30;;
64641;SDS011;59936;51.490;5.436;2023-11-22T01:22:58;14.60;;;8.20;;
64641;SDS011;59936;51.490;5.436;2023-11-22T01:25:26;21.70;;;9.30;;
64641;SDS011;59936;51.490;5.436;2023-11-22T01:27:55;12.80;;;8.30;;
64641;SDS011;59936;51.490;5.436;2023-11-22T01:30:23;14.50;;;7.40;;
64641;SDS011;59936;51.490;5.436;2023-11-22T01:32:52;12.60;;;7.30;;
64641;SDS011;59936;51.490;5.436;2023-11-22T01:35:21;12.90;;;7.60;;
64641;SDS011;59936;51.490;5.436;2023-11-22T01:37:49;16.20;;;8.50;;
64641;SDS011;59936;51.490;5.436;2023-11-22T01:40:18;24.30;;;9.20;;
64641;SDS011;59936;51.490;5.436;2023-11-22T01:42:47;18.40;;;9.40;;
64641;SDS011;59936;51.490;5.436;2023-11-22T01:45:15;15.80;;;8.70;;
64641;SDS011;59936;51.490;5.436;2023-11-22T01:47:44;15.30;;;8.80;;
64641;SDS011;59936;51.490;5.436;2023-11-22T01:50:13;18.00;;;9.30;;
64641;SDS011;59936;51.490;5.436;2023-11-22T01:52:42;15.30;;;8.80;;
64641;SDS011;59936;51.490;5.436;2023-11-22T01:55:12;14.10;;;8.20;;
64641;SDS011;59936;51.490;5.436;2023-11-22T01:57:41;16.80;;;9.30;;
64641;SDS011;59936;51.490;5.436;2023-11-22T02:00:10;17.20;;;8.90;;
64641;SDS011;59936;51.490;5.436;2023-11-22T02:02:39;13.80;;;7.70;;
64641;SDS011;59936;51.490;5.436;2023-11-22T02:05:09;23.60;;;9.50;;
64641;SDS011;59936;51.490;5.436;2023-11-22T02:07:37;17.20;;;8.50;;
64641;SDS011;59936;51.490;5.436;2023-11-22T02:10:07;13.10;;;7.90;;
64641;SDS011;59936;51.490;5.436;2023-11-22T02:12:36;15.60;;;9.30;;
64641;SDS011;59936;51.490;5.436;2023-11-22T02:15:05;19.10;;;9.20;;
64641;SDS011;59936;51.490;5.436;2023-11-22T02:17:34;15.00;;;7.90;;
64641;SDS011;59936;51.490;5.436;2023-11-22T02:20:03;12.60;;;6.70;;
64641;SDS011;59936;51.490;5.436;2023-11-22T02:22:33;12.40;;;7.60;;
64641;SDS011;59936;51.490;5.436;2023-11-22T02:25:01;18.50;;;9.70;;
64641;SDS011;59936;51.490;5.436;2023-11-22T02:27:30;18.40;;;9.30;;
64641;SDS011;59936;51.490;5.436;2023-11-22T02:29:58;16.10;;;7.10;;
64641;SDS011;59936;51.490;5.436;2023-11-22T02:32:27;14.50;;;8.20;;
64641;SDS011;59936;51.490;5.436;2023-11-22T02:34:56;15.90;;;8.70;;
64641;SDS011;59936;51.490;5.436;2023-11-22T02:37:24;20.50;;;7.90;;
64641;SDS011;59936;51.490;5.436;2023-11-22T02:39:58;14.50;;;8.60;;
64641;SDS011;59936;51.490;5.436;2023-11-22T02:42:33;21.90;;;7.10;;
64641;SDS011;59936;51.490;5.436;2023-11-22T02:45:02;20.10;;;9.50;;
64641;SDS011;59936;51.490;5.436;2023-11-22T02:47:31;13.40;;;7.90;;
64641;SDS011;59936;51.490;5.436;2023-11-22T02:50:03;15.40;;;9.00;;
64641;SDS011;59936;51.490;5.436;2023-11-22T02:52:32;17.20;;;8.40;;
64641;SDS011;59936;51.490;5.436;2023-11-22T02:55:01;14.50;;;8.10;;
64641;SDS011;59936;51.490;5.436;2023-11-22T02:57:29;13.20;;;7.40;;
64641;SDS011;59936;51.490;5.436;2023-11-22T02:59:58;19.60;;;8.50;;
64641;SDS011;59936;51.490;5.436;2023-11-22T03:02:27;16.50;;;8.40;;
64641;SDS011;59936;51.490;5.436;2023-11-22T03:04:55;16.40;;;9.50;;
64641;SDS011;59936;51.490;5.436;2023-11-22T03:07:27;18.80;;;8.60;;
64641;SDS011;59936;51.490;5.436;2023-11-22T03:09:56;17.70;;;8.20;;
64641;SDS011;59936;51.490;5.436;2023-11-22T03:12:24;16.60;;;8.00;;
64641;SDS011;59936;51.490;5.436;2023-11-22T03:14:53;27.40;;;8.00;;
64641;SDS011;59936;51.490;5.436;2023-11-22T03:17:21;18.70;;;8.10;;
64641;SDS011;59936;51.490;5.436;2023-11-22T03:19:50;12.20;;;7.40;;
64641;SDS011;59936;51.490;5.436;2023-11-22T03:22:18;10.60;;;7.80;;
64641;SDS011;59936;51.490;5.436;2023-11-22T03:24:47;15.70;;;8.50;;
64641;SDS011;59936;51.490;5.436;2023-11-22T03:27:16;9.20;;;6.60;;
64641;SDS011;59936;51.490;5.436;2023-11-22T03:29:45;13.60;;;7.20;;
64641;SDS011;59936;51.490;5.436;2023-11-22T03:32:13;19.00;;;8.00;;
64641;SDS011;59936;51.490;5.436;2023-11-22T03:34:42;13.80;;;8.60;;
64641;SDS011;59936;51.490;5.436;2023-11-22T03:37:10;18.10;;;8.70;;
64641;SDS011;59936;51.490;5.436;2023-11-22T03:39:39;15.20;;;7.10;;
64641;SDS011;59936;51.490;5.436;2023-11-22T03:42:08;14.70;;;7.40;;
64641;SDS011;59936;51.490;5.436;2023-11-22T03:44:36;10.50;;;6.60;;
64641;SDS011;59936;51.490;5.436;2023-11-22T03:47:05;13.10;;;7.70;;
64641;SDS011;59936;51.490;5.436;2023-11-22T03:49:33;16.00;;;7.50;;
64641;SDS011;59936;51.490;5.436;2023-11-22T03:52:02;11.20;;;6.60;;
64641;SDS011;59936;51.490;5.436;2023-11-22T03:54:31;20.70;;;8.80;;
64641;SDS011;59936;51.490;5.436;2023-11-22T03:56:59;20.30;;;8.30;;
64641;SDS011;59936;51.490;5.436;2023-11-22T03:59:28;11.20;;;7.20;;
64641;SDS011;59936;51.490;5.436;2023-11-22T04:01:57;12.30;;;7.20;;
64641;SDS011;59936;51.490;5.436;2023-11-22T04:04:26;12.80;;;7.00;;
64641;SDS011;59936;51.490;5.436;2023-11-22T04:06:54;23.20;;;8.00;;
64641;SDS011;59936;51.490;5.436;2023-11-22T04:09:23;12.00;;;6.40;;
64641;SDS011;59936;51.490;5.436;2023-11-22T04:11:51;12.20;;;6.90;;
64641;SDS011;59936;51.490;5.436;2023-11-22T04:14:20;13.10;;;8.10;;
64641;SDS011;59936;51.490;5.436;2023-11-22T04:16:48;19.20;;;9.10;;
64641;SDS011;59936;51.490;5.436;2023-11-22T04:19:17;22.80;;;8.70;;
64641;SDS011;59936;51.490;5.436;2023-11-22T04:21:45;16.40;;;7.90;;
64641;SDS011;59936;51.490;5.436;2023-11-22T04:24:14;10.90;;;6.50;;
64641;SDS011;59936;51.490;5.436;2023-11-22T04:26:43;14.50;;;8.60;;
64641;SDS011;59936;51.490;5.436;2023-11-22T04:29:11;13.20;;;8.00;;
64641;SDS011;59936;51.490;5.436;2023-11-22T04:31:40;12.50;;;7.80;;
64641;SDS011;59936;51.490;5.436;2023-11-22T04:34:08;12.20;;;7.00;;
64641;SDS011;59936;51.490;5.436;2023-11-22T04:36:37;15.40;;;7.80;;
64641;SDS011;59936;51.490;5.436;2023-11-22T04:39:06;13.90;;;8.30;;
64641;SDS011;59936;51.490;5.436;2023-11-22T04:41:34;13.30;;;8.00;;
64641;SDS011;59936;51.490;5.436;2023-11-22T04:44:03;12.10;;;6.50;;
64641;SDS011;59936;51.490;5.436;2023-11-22T04:46:32;14.50;;;7.20;;
64641;SDS011;59936;51.490;5.436;2023-11-22T04:49:01;13.20;;;7.10;;
64641;SDS011;59936;51.490;5.436;2023-11-22T04:51:29;10.80;;;7.30;;
64641;SDS011;59936;51.490;5.436;2023-11-22T04:53:58;14.10;;;7.20;;
64641;SDS011;59936;51.490;5.436;2023-11-22T04:56:26;12.10;;;7.10;;
64641;SDS011;59936;51.490;5.436;2023-11-22T04:58:55;20.30;;;7.50;;
64641;SDS011;59936;51.490;5.436;2023-11-22T05:01:23;11.90;;;7.30;;
64641;SDS011;59936;51.490;5.436;2023-11-22T05:03:52;12.70;;;8.10;;
64641;SDS011;59936;51.490;5.436;2023-11-22T05:06:20;26.90;;;8.10;;
64641;SDS011;59936;51.490;5.436;2023-11-22T05:08:49;14.60;;;6.30;;
64641;SDS011;59936;51.490;5.436;2023-11-22T05:11:18;11.90;;;7.40;;
64641;SDS011;59936;51.490;5.436;2023-11-22T05:13:47;12.50;;;7.10;;
64641;SDS011;59936;51.490;5.436;2023-11-22T05:16:16;13.10;;;8.10;;
64641;SDS011;59936;51.490;5.436;2023-11-22T05:18:45;12.30;;;6.70;;
64641;SDS011;59936;51.490;5.436;2023-11-22T05:21:14;15.50;;;8.00;;
64641;SDS011;59936;51.490;5.436;2023-11-22T05:23:43;13.20;;;7.50;;
64641;SDS011;59936;51.490;5.436;2023-11-22T05:26:11;13.50;;;7.20;;
64641;SDS011;59936;51.490;5.436;2023-11-22T05:28:40;16.30;;;7.80;;
64641;SDS011;59936;51.490;5.436;2023-11-22T05:31:08;17.00;;;7.20;;
64641;SDS011;59936;51.490;5.436;2023-11-22T05:33:37;15.20;;;7.40;;
64641;SDS011;59936;51.490;5.436;2023-11-22T05:36:06;12.10;;;7.00;;
64641;SDS011;59936;51.490;5.436;2023-11-22T05:38:35;12.90;;;7.00;;
64641;SDS011;59936;51.490;5.436;2023-11-22T05:41:03;10.30;;;7.60;;
64641;SDS011;59936;51.490;5.436;2023-11-22T05:43:32;16.60;;;7.90;;
64641;SDS011;59936;51.490;5.436;2023-11-22T05:46:01;10.90;;;7.70;;
64641;SDS011;59936;51.490;5.436;2023-11-22T05:48:29;13.60;;;7.00;;
64641;SDS011;59936;51.490;5.436;2023-11-22T05:50:58;11.40;;;7.70;;
64641;SDS011;59936;51.490;5.436;2023-11-22T05:53:26;22.00;;;9.30;;
64641;SDS011;59936;51.490;5.436;2023-11-22T05:55:55;15.50;;;7.80;;
64641;SDS011;59936;51.490;5.436;2023-11-22T05:58:23;19.60;;;6.90;;
64641;SDS011;59936;51.490;5.436;2023-11-22T06:00:52;8.70;;;6.70;;
64641;SDS011;59936;51.490;5.436;2023-11-22T06:03:20;19.30;;;7.40;;
64641;SDS011;59936;51.490;5.436;2023-11-22T06:05:49;19.70;;;9.70;;
64641;SDS011;59936;51.490;5.436;2023-11-22T06:08:18;17.30;;;8.00;;
64641;SDS011;59936;51.490;5.436;2023-11-22T06:10:46;20.50;;;7.50;;
64641;SDS011;59936;51.490;5.436;2023-11-22T06:13:15;24.30;;;8.10;;
64641;SDS011;59936;51.490;5.436;2023-11-22T06:15:43;14.30;;;6.10;;
64641;SDS011;59936;51.490;5.436;2023-11-22T06:18:12;11.30;;;7.10;;
64641;SDS011;59936;51.490;5.436;2023-11-22T06:20:41;15.60;;;8.30;;
64641;SDS011;59936;51.490;5.436;2023-11-22T06:23:10;23.20;;;8.50;;
64641;SDS011;59936;51.490;5.436;2023-11-22T06:25:39;15.40;;;8.80;;
64641;SDS011;59936;51.490;5.436;2023-11-22T06:28:07;22.40;;;10.30;;
64641;SDS011;59936;51.490;5.436;2023-11-22T06:30:36;87.50;;;10.40;;
64641;SDS011;59936;51.490;5.436;2023-11-22T06:33:05;60.00;;;10.20;;
64641;SDS011;59936;51.490;5.436;2023-11-22T06:35:33;52.20;;;11.50;;
64641;SDS011;59936;51.490;5.436;2023-11-22T06:38:02;147.90;;;13.20;;
64641;SDS011;59936;51.490;5.436;2023-11-22T06:40:30;32.80;;;9.90;;
64641;SDS011;59936;51.490;5.436;2023-11-22T06:42:59;64.10;;;11.30;;
64641;SDS011;59936;51.490;5.436;2023-11-22T06:45:27;70.70;;;9.70;;
64641;SDS011;59936;51.490;5.436;2023-11-22T06:47:56;51.40;;;10.70;;
64641;SDS011;59936;51.490;5.436;2023-11-22T06:50:25;88.70;;;13.80;;
64641;SDS011;59936;51.490;5.436;2023-11-22T06:52:53;84.80;;;12.30;;
64641;SDS011;59936;51.490;5.436;2023-11-22T06:55:22;62.70;;;11.10;;
64641;SDS011;59936;51.490;5.436;2023-11-22T06:57:50;48.30;;;12.70;;
64641;SDS011;59936;51.490;5.436;2023-11-22T07:00:19;118.50;;;13.70;;
64641;SDS011;59936;51.490;5.436;2023-11-22T07:02:48;231.10;;;19.40;;
64641;SDS011;59936;51.490;5.436;2023-11-22T07:05:16;78.30;;;11.70;;
64641;SDS011;59936;51.490;5.436;2023-11-22T07:07:45;47.20;;;10.30;;
64641;SDS011;59936;51.490;5.436;2023-11-22T07:10:13;27.80;;;9.10;;
64641;SDS011;59936;51.490;5.436;2023-11-22T07:12:42;26.50;;;6.70;;
64641;SDS011;59936;51.490;5.436;2023-11-22T07:15:11;58.30;;;11.50;;
64641;SDS011;59936;51.490;5.436;2023-11-22T07:17:39;19.40;;;8.10;;
64641;SDS011;59936;51.490;5.436;2023-11-22T07:20:08;13.10;;;8.10;;
64641;SDS011;59936;51.490;5.436;2023-11-22T07:22:37;35.90;;;7.80;;
64641;SDS011;59936;51.490;5.436;2023-11-22T07:25:05;22.10;;;10.00;;
64641;SDS011;59936;51.490;5.436;2023-11-22T07:27:34;15.60;;;6.10;;
64641;SDS011;59936;51.490;5.436;2023-11-22T07:30:03;37.70;;;8.80;;
64641;SDS011;59936;51.490;5.436;2023-11-22T07:32:32;37.00;;;9.70;;
64641;SDS011;59936;51.490;5.436;2023-11-22T07:35:01;56.90;;;8.10;;
64641;SDS011;59936;51.490;5.436;2023-11-22T07:37:29;32.70;;;10.50;;
64641;SDS011;59936;51.490;5.436;2023-11-22T07:39:58;35.00;;;10.80;;
64641;SDS011;59936;51.490;5.436;2023-11-22T07:42:26;131.10;;;13.50;;
64641;SDS011;59936;51.490;5.436;2023-11-22T07:44:55;74.80;;;12.50;;
64641;SDS011;59936;51.490;5.436;2023-11-22T07:47:23;50.00;;;11.60;;
64641;SDS011;59936;51.490;5.436;2023-11-22T07:49:52;61.30;;;12.20;;
64641;SDS011;59936;51.490;5.436;2023-11-22T07:52:24;36.80;;;12.40;;
64641;SDS011;59936;51.490;5.436;2023-11-22T07:54:52;19.70;;;9.00;;
64641;SDS011;59936;51.490;5.436;2023-11-22T07:57:21;8.60;;;6.00;;
64641;SDS011;59936;51.490;5.436;2023-11-22T07:59:49;42.50;;;10.30;;
64641;SDS011;59936;51.490;5.436;2023-11-22T08:02:18;18.90;;;9.70;;
64641;SDS011;59936;51.490;5.436;2023-11-22T08:04:47;40.50;;;11.40;;
64641;SDS011;59936;51.490;5.436;2023-11-22T08:07:17;29.80;;;12.20;;
64641;SDS011;59936;51.490;5.436;2023-11-22T08:09:45;42.70;;;13.20;;
64641;SDS011;59936;51.490;5.436;2023-11-22T08:12:14;42.10;;;13.00;;
64641;SDS011;59936;51.490;5.436;2023-11-22T08:14:42;28.40;;;10.30;;
64641;SDS011;59936;51.490;5.436;2023-11-22T08:17:11;36.95;;;13.60;;
64641;SDS011;59936;51.490;5.436;2023-11-22T08:19:40;39.80;;;14.20;;
64641;SDS011;59936;51.490;5.436;2023-11-22T08:22:08;39.80;;;13.20;;
64641;SDS011;59936;51.490;5.436;2023-11-22T08:24:37;37.20;;;13.70;;
64641;SDS011;59936;51.490;5.436;2023-11-22T08:27:05;31.60;;;14.50;;
64641;SDS011;59936;51.490;5.436;2023-11-22T08:29:34;44.90;;;15.10;;
64641;SDS011;59936;51.490;5.436;2023-11-22T08:32:02;45.10;;;14.80;;
64641;SDS011;59936;51.490;5.436;2023-11-22T08:34:31;28.60;;;11.70;;
64641;SDS011;59936;51.490;5.436;2023-11-22T08:37:00;48.00;;;18.20;;
64641;SDS011;59936;51.490;5.436;2023-11-22T08:39:29;32.60;;;12.30;;
64641;SDS011;59936;51.490;5.436;2023-11-22T08:41:57;50.70;;;14.50;;
64641;SDS011;59936;51.490;5.436;2023-11-22T08:44:26;49.10;;;17.30;;
64641;SDS011;59936;51.490;5.436;2023-11-22T08:46:54;49.80;;;18.20;;
64641;SDS011;59936;51.490;5.436;2023-11-22T08:49:23;46.30;;;17.20;;
64641;SDS011;59936;51.490;5.436;2023-11-22T08:51:52;59.30;;;18.20;;
64641;SDS011;59936;51.490;5.436;2023-11-22T08:54:20;61.10;;;19.70;;
64641;SDS011;59936;51.490;5.436;2023-11-22T08:56:49;34.50;;;17.60;;
64641;SDS011;59936;51.490;5.436;2023-11-22T08:59:21;42.40;;;15.90;;
64641;SDS011;59936;51.490;5.436;2023-11-22T09:01:49;56.85;;;17.80;;
64641;SDS011;59936;51.490;5.436;2023-11-22T09:04:18;57.40;;;17.50;;
64641;SDS011;59936;51.490;5.436;2023-11-22T09:06:51;47.30;;;16.40;;
64641;SDS011;59936;51.490;5.436;2023-11-22T09:09:23;63.90;;;18.00;;
64641;SDS011;59936;51.490;5.436;2023-11-22T09:11:52;38.60;;;14.70;;
64641;SDS011;59936;51.490;5.436;2023-11-22T09:14:20;55.80;;;14.20;;
64641;SDS011;59936;51.490;5.436;2023-11-22T09:16:52;44.10;;;16.00;;
64641;SDS011;59936;51.490;5.436;2023-11-22T09:19:21;45.60;;;16.30;;
64641;SDS011;59936;51.490;5.436;2023-11-22T09:21:50;42.20;;;14.70;;
64641;SDS011;59936;51.490;5.436;2023-11-22T09:24:19;38.90;;;16.50;;
64641;SDS011;59936;51.490;5.436;2023-11-22T09:26:48;44.10;;;17.00;;
64641;SDS011;59936;51.490;5.436;2023-11-22T09:29:16;66.00;;;21.30;;
64641;SDS011;59936;51.490;5.436;2023-11-22T09:31:45;59.80;;;20.20;;
64641;SDS011;59936;51.490;5.436;2023-11-22T09:34:13;37.80;;;16.20;;
64641;SDS011;59936;51.490;5.436;2023-11-22T09:36:42;70.40;;;20.80;;
64641;SDS011;59936;51.490;5.436;2023-11-22T09:39:11;65.10;;;20.30;;
64641;SDS011;59936;51.490;5.436;2023-11-22T09:41:39;70.90;;;20.10;;
64641;SDS011;59936;51.490;5.436;2023-11-22T09:44:08;62.60;;;18.90;;
64641;SDS011;59936;51.490;5.436;2023-11-22T09:46:36;93.00;;;25.90;;
64641;SDS011;59936;51.490;5.436;2023-11-22T09:49:05;62.60;;;21.50;;
64641;SDS011;59936;51.490;5.436;2023-11-22T09:51:41;61.85;;;19.05;;
64641;SDS011;59936;51.490;5.436;2023-11-22T09:54:12;63.60;;;21.30;;
64641;SDS011;59936;51.490;5.436;2023-11-22T09:56:42;70.30;;;20.30;;
64641;SDS011;59936;51.490;5.436;2023-11-22T09:59:11;68.10;;;21.35;;
64641;SDS011;59936;51.490;5.436;2023-11-22T10:01:42;84.60;;;21.70;;
64641;SDS011;59936;51.490;5.436;2023-11-22T10:04:11;63.00;;;21.20;;
64641;SDS011;59936;51.490;5.436;2023-11-22T10:06:39;86.90;;;23.40;;
64641;SDS011;59936;51.490;5.436;2023-11-22T10:09:08;80.60;;;20.80;;
64641;SDS011;59936;51.490;5.436;2023-11-22T10:11:37;59.60;;;20.00;;
64641;SDS011;59936;51.490;5.436;2023-11-22T10:14:05;90.40;;;24.60;;
64641;SDS011;59936;51.490;5.436;2023-11-22T10:16:34;94.00;;;24.90;;
64641;SDS011;59936;51.490;5.436;2023-11-22T10:19:03;71.80;;;20.50;;
64641;SDS011;59936;51.490;5.436;2023-11-22T10:21:32;82.60;;;21.60;;
64641;SDS011;59936;51.490;5.436;2023-11-22T10:24:01;64.10;;;20.70;;
64641;SDS011;59936;51.490;5.436;2023-11-22T10:26:31;81.30;;;23.50;;
64641;SDS011;59936;51.490;5.436;2023-11-22T10:29:00;85.70;;;21.40;;
64641;SDS011;59936;51.490;5.436;2023-11-22T10:31:28;93.00;;;23.70;;
64641;SDS011;59936;51.490;5.436;2023-11-22T10:33:57;78.60;;;22.65;;
64641;SDS011;59936;51.490;5.436;2023-11-22T10:36:25;82.70;;;22.70;;
64641;SDS011;59936;51.490;5.436;2023-11-22T10:38:54;96.90;;;25.90;;
64641;SDS011;59936;51.490;5.436;2023-11-22T10:41:22;87.80;;;22.20;;
64641;SDS011;59936;51.490;5.436;2023-11-22T10:43:54;75.30;;;21.90;;
64641;SDS011;59936;51.490;5.436;2023-11-22T10:46:24;88.50;;;24.20;;
64641;SDS011;59936;51.490;5.436;2023-11-22T10:48:56;61.10;;;21.10;;
64641;SDS011;59936;51.490;5.436;2023-11-22T10:51:26;78.20;;;24.70;;
64641;SDS011;59936;51.490;5.436;2023-11-22T10:56:30;102.70;;;27.50;;
64641;SDS011;59936;51.490;5.436;2023-11-22T10:59:14;99.80;;;26.70;;
64641;SDS011;59936;51.490;5.436;2023-11-22T11:01:47;96.30;;;29.30;;
64641;SDS011;59936;51.490;5.436;2023-11-22T11:04:19;86.50;;;24.10;;
64641;SDS011;59936;51.490;5.436;2023-11-22T11:06:55;63.10;;;21.30;;
64641;SDS011;59936;51.490;5.436;2023-11-22T11:09:26;120.30;;;31.50;;
64641;SDS011;59936;51.490;5.436;2023-11-22T11:11:55;81.90;;;24.70;;
64641;SDS011;59936;51.490;5.436;2023-11-22T11:14:25;86.20;;;23.40;;
64641;SDS011;59936;51.490;5.436;2023-11-22T11:16:55;115.40;;;28.60;;
64641;SDS011;59936;51.490;5.436;2023-11-22T11:19:24;95.00;;;26.30;;
64641;SDS011;59936;51.490;5.436;2023-11-22T11:21:54;86.90;;;26.10;;
64641;SDS011;59936;51.490;5.436;2023-11-22T11:24:23;139.70;;;32.00;;
64641;SDS011;59936;51.490;5.436;2023-11-22T11:26:51;97.30;;;28.80;;
64641;SDS011;59936;51.490;5.436;2023-11-22T11:29:33;107.10;;;29.20;;
64641;SDS011;59936;51.490;5.436;2023-11-22T11:32:04;82.70;;;25.20;;
64641;SDS011;59936;51.490;5.436;2023-11-22T11:34:32;91.20;;;27.50;;
64641;SDS011;59936;51.490;5.436;2023-11-22T11:37:17;106.60;;;28.20;;
64641;SDS011;59936;51.490;5.436;2023-11-22T11:39:47;104.50;;;26.90;;
64641;SDS011;59936;51.490;5.436;2023-11-22T11:42:16;97.50;;;26.20;;
64641;SDS011;59936;51.490;5.436;2023-11-22T11:44:51;85.30;;;24.80;;
64641;SDS011;59936;51.490;5.436;2023-11-22T11:47:33;87.30;;;27.90;;
64641;SDS011;59936;51.490;5.436;2023-11-22T11:50:02;121.30;;;29.60;;
64641;SDS011;59936;51.490;5.436;2023-11-22T11:52:31;104.70;;;27.50;;
64641;SDS011;59936;51.490;5.436;2023-11-22T11:55:03;88.70;;;26.00;;
64641;SDS011;59936;51.490;5.436;2023-11-22T11:57:32;67.20;;;23.70;;
64641;SDS011;59936;51.490;5.436;2023-11-22T12:00:01;80.50;;;23.40;;
64641;SDS011;59936;51.490;5.436;2023-11-22T12:02:30;67.85;;;21.05;;
64641;SDS011;59936;51.490;5.436;2023-11-22T12:04:58;61.20;;;22.70;;
64641;SDS011;59936;51.490;5.436;2023-11-22T12:07:27;56.60;;;19.90;;
64641;SDS011;59936;51.490;5.436;2023-11-22T12:09:55;55.00;;;21.80;;
64641;SDS011;59936;51.490;5.436;2023-11-22T12:12:24;76.20;;;23.90;;
64641;SDS011;59936;51.490;5.436;2023-11-22T12:14:53;56.70;;;21.00;;
64641;SDS011;59936;51.490;5.436;2023-11-22T12:17:21;47.40;;;19.30;;
64641;SDS011;59936;51.490;5.436;2023-11-22T12:19:50;26.95;;;15.55;;
64641;SDS011;59936;51.490;5.436;2023-11-22T12:22:20;31.80;;;15.40;;
64641;SDS011;59936;51.490;5.436;2023-11-22T12:24:49;51.80;;;19.80;;
64641;SDS011;59936;51.490;5.436;2023-11-22T12:27:17;50.50;;;20.40;;
64641;SDS011;59936;51.490;5.436;2023-11-22T12:29:48;46.10;;;20.70;;
64641;SDS011;59936;51.490;5.436;2023-11-22T12:32:22;42.80;;;18.80;;
64641;SDS011;59936;51.490;5.436;2023-11-22T12:34:52;34.90;;;18.70;;
64641;SDS011;59936;51.490;5.436;2023-11-22T12:37:26;41.40;;;17.40;;
64641;SDS011;59936;51.490;5.436;2023-11-22T12:39:55;43.70;;;19.50;;
64641;SDS011;59936;51.490;5.436;2023-11-22T12:42:24;48.50;;;20.10;;
64641;SDS011;59936;51.490;5.436;2023-11-22T12:44:53;44.20;;;20.50;;
64641;SDS011;59936;51.490;5.436;2023-11-22T12:47:31;50.00;;;20.30;;
64641;SDS011;59936;51.490;5.436;2023-11-22T12:50:03;39.70;;;17.00;;
64641;SDS011;59936;51.490;5.436;2023-11-22T12:52:32;38.10;;;18.20;;
64641;SDS011;59936;51.490;5.436;2023-11-22T12:55:01;36.70;;;18.60;;
64641;SDS011;59936;51.490;5.436;2023-11-22T12:57:29;22.50;;;12.50;;
64641;SDS011;59936;51.490;5.436;2023-11-22T12:59:58;36.60;;;14.70;;
64641;SDS011;59936;51.490;5.436;2023-11-22T13:02:26;34.30;;;17.50;;
64641;SDS011;59936;51.490;5.436;2023-11-22T13:04:55;28.10;;;13.40;;
64641;SDS011;59936;51.490;5.436;2023-11-22T13:07:24;28.70;;;15.10;;
64641;SDS011;59936;51.490;5.436;2023-11-22T13:09:52;24.20;;;12.20;;
64641;SDS011;59936;51.490;5.436;2023-11-22T13:12:21;25.30;;;14.00;;
64641;SDS011;59936;51.490;5.436;2023-11-22T13:14:55;27.30;;;14.00;;
64641;SDS011;59936;51.490;5.436;2023-11-22T13:17:23;30.80;;;16.40;;
64641;SDS011;59936;51.490;5.436;2023-11-22T13:19:52;23.70;;;14.90;;
64641;SDS011;59936;51.490;5.436;2023-11-22T13:22:21;39.80;;;16.20;;
64641;SDS011;59936;51.490;5.436;2023-11-22T13:24:49;29.70;;;14.80;;
64641;SDS011;59936;51.490;5.436;2023-11-22T13:27:18;41.50;;;19.60;;
64641;SDS011;59936;51.490;5.436;2023-11-22T13:29:46;34.00;;;17.40;;
64641;SDS011;59936;51.490;5.436;2023-11-22T13:32:15;36.70;;;20.10;;
64641;SDS011;59936;51.490;5.436;2023-11-22T13:34:43;41.25;;;20.10;;
64641;SDS011;59936;51.490;5.436;2023-11-22T13:37:12;45.10;;;19.30;;
64641;SDS011;59936;51.490;5.436;2023-11-22T13:39:40;44.90;;;23.60;;
64641;SDS011;59936;51.490;5.436;2023-11-22T13:42:09;39.80;;;19.90;;
64641;SDS011;59936;51.490;5.436;2023-11-22T13:44:38;48.00;;;26.00;;
64641;SDS011;59936;51.490;5.436;2023-11-22T13:47:06;44.25;;;22.75;;
64641;SDS011;59936;51.490;5.436;2023-11-22T13:49:35;43.60;;;20.50;;
64641;SDS011;59936;51.490;5.436;2023-11-22T13:52:04;45.90;;;22.00;;
64641;SDS011;59936;51.490;5.436;2023-11-22T13:54:33;40.40;;;19.00;;
64641;SDS011;59936;51.490;5.436;2023-11-22T13:57:01;31.55;;;16.95;;
64641;SDS011;59936;51.490;5.436;2023-11-22T13:59:30;39.20;;;17.90;;
64641;SDS011;59936;51.490;5.436;2023-11-22T14:01:58;36.70;;;17.10;;
64641;SDS011;59936;51.490;5.436;2023-11-22T14:04:27;29.90;;;15.90;;
64641;SDS011;59936;51.490;5.436;2023-11-22T14:06:56;31.10;;;15.80;;
64641;SDS011;59936;51.490;5.436;2023-11-22T14:09:24;27.60;;;14.90;;
64641;SDS011;59936;51.490;5.436;2023-11-22T14:11:53;35.60;;;17.10;;
64641;SDS011;59936;51.490;5.436;2023-11-22T14:14:21;37.10;;;18.40;;
64641;SDS011;59936;51.490;5.436;2023-11-22T14:16:50;30.90;;;14.60;;
64641;SDS011;59936;51.490;5.436;2023-11-22T14:19:18;22.60;;;14.10;;
64641;SDS011;59936;51.490;5.436;2023-11-22T14:21:47;42.40;;;20.00;;
64641;SDS011;59936;51.490;5.436;2023-11-22T14:24:15;36.65;;;16.95;;
64641;SDS011;59936;51.490;5.436;2023-11-22T14:26:44;33.20;;;16.20;;
64641;SDS011;59936;51.490;5.436;2023-11-22T14:29:13;32.90;;;15.30;;
64641;SDS011;59936;51.490;5.436;2023-11-22T14:31:41;38.40;;;17.60;;
64641;SDS011;59936;51.490;5.436;2023-11-22T14:34:10;30.00;;;15.30;;
64641;SDS011;59936;51.490;5.436;2023-11-22T14:36:38;34.10;;;17.15;;
64641;SDS011;59936;51.490;5.436;2023-11-22T14:39:07;45.65;;;19.45;;
64641;SDS011;59936;51.490;5.436;2023-11-22T14:41:35;40.70;;;17.70;;
64641;SDS011;59936;51.490;5.436;2023-11-22T14:44:04;39.40;;;18.30;;